Terminal Aerodrome Forecast
Issued by NWS Memphis, TN

Home | Current Version | Previous Version | Text Only | Print | Product List | Glossary On
Versions: 1 2 3 4 5 6 7 8 9 10 11 12 13 14 15 16 17 18 19
000
FTUS44 KMEG 202327
TAFJBR
TAF
KJBR 202327Z 2100/2124 16010KT P6SM OVC100
     FM210600 22005KT P6SM VCSH OVC040
     FM210800 30005KT 4SM -SHRA OVC010
      TEMPO 2108/2111 2SM SHRA OVC007
     FM211100 07007KT 4SM -SHRA BR OVC007
     FM211800 06005KT 4SM BR OVC015=

USA.gov is the U.S. government's official web portal to all federal, state and local government web resources and services.